createdAt,value
2022-10-19T00:00:06.897Z,98293.22
2022-10-19T00:02:35.878Z,98296.09
2022-10-19T00:05:02.375Z,98293.34
2022-10-19T00:07:28.972Z,98293.53
2022-10-19T00:09:55.524Z,98288.88
2022-10-19T00:12:21.995Z,98282.59
2022-10-19T00:14:48.523Z,98276.44
2022-10-19T00:17:15.030Z,98288.06
2022-10-19T00:19:41.662Z,98276.38
2022-10-19T00:22:10.367Z,98283.78
2022-10-19T00:24:39.601Z,98277.59
2022-10-19T00:27:06.449Z,98281.88
2022-10-19T00:29:32.949Z,98285.22
2022-10-19T00:31:59.432Z,98284.16
2022-10-19T00:34:25.915Z,98282.50
2022-10-19T00:36:52.408Z,98283.66
2022-10-19T00:39:19.153Z,98284.88
2022-10-19T00:41:46.130Z,98286.88
2022-10-19T00:44:12.604Z,98279.63
2022-10-19T00:46:40.141Z,98285.94
2022-10-19T00:49:10.011Z,98281.66
2022-10-19T00:51:38.124Z,98287.72
2022-10-19T00:54:05.079Z,98286.88
2022-10-19T00:56:31.621Z,98281.78
2022-10-19T00:58:58.161Z,98286.44
2022-10-19T01:01:24.732Z,98287.69
2022-10-19T01:03:51.188Z,98284.50
2022-10-19T01:06:18.019Z,98279.28
2022-10-19T01:08:44.606Z,98282.59
2022-10-19T01:11:11.716Z,98282.47
2022-10-19T01:13:53.556Z,98273.47
2022-10-19T01:16:38.897Z,98268.97
2022-10-19T01:19:10.823Z,98270.50
2022-10-19T01:21:45.516Z,98266.09
2022-10-19T01:24:18.030Z,98270.63
2022-10-19T01:26:44.449Z,98277.63
2022-10-19T01:29:29.752Z,98272.41
2022-10-19T01:31:56.191Z,98265.53
2022-10-19T01:34:24.474Z,98266.47
2022-10-19T01:37:23.370Z,98269.28
2022-10-19T01:40:10.091Z,98271.69
2022-10-19T01:42:39.490Z,98270.72
2022-10-19T01:45:19.771Z,98264.91
2022-10-19T01:47:48.208Z,98256.25
2022-10-19T01:50:19.530Z,98256.84
2022-10-19T01:52:46.040Z,98257.19
2022-10-19T01:55:13.207Z,98264.81
2022-10-19T01:57:41.036Z,98257.56
2022-10-19T02:00:07.832Z,98256.03
2022-10-19T02:02:35.535Z,98251.00
2022-10-19T02:05:02.242Z,98250.78
2022-10-19T02:07:28.715Z,98243.78
2022-10-19T02:09:55.502Z,98245.06
2022-10-19T02:12:21.977Z,98234.53
2022-10-19T02:14:50.462Z,98240.44
2022-10-19T02:17:21.208Z,98238.44
2022-10-19T02:19:47.638Z,98233.44
2022-10-19T02:22:14.153Z,98233.69
2022-10-19T02:24:40.560Z,98237.25
2022-10-19T02:27:07.246Z,98232.22
2022-10-19T02:29:34.052Z,98232.22
2022-10-19T02:32:00.691Z,98225.09
2022-10-19T02:34:27.133Z,98231.75
2022-10-19T02:36:53.870Z,98224.41
2022-10-19T02:39:20.540Z,98227.97
2022-10-19T02:41:53.125Z,98233.19
2022-10-19T02:44:20.516Z,98224.84
2022-10-19T02:46:51.104Z,98225.09
2022-10-19T02:49:17.767Z,98226.25
2022-10-19T02:52:03.469Z,98228.88
2022-10-19T02:54:29.928Z,98212.75
2022-10-19T02:56:56.485Z,98229.22
2022-10-19T02:59:23.314Z,98228.06
2022-10-19T03:01:49.801Z,98222.47
2022-10-19T03:04:16.363Z,98226.75
2022-10-19T03:06:42.859Z,98220.38
2022-10-19T03:09:09.504Z,98211.22
2022-10-19T03:11:36.018Z,98208.13
2022-10-19T03:14:02.561Z,98213.25
2022-10-19T03:16:29.079Z,98208.41
2022-10-19T03:18:55.560Z,98206.63
2022-10-19T03:21:22.023Z,98210.66
2022-10-19T03:23:48.500Z,98205.19
2022-10-19T03:26:16.154Z,98207.56
2022-10-19T03:28:42.703Z,98206.38
2022-10-19T03:31:09.206Z,98210.53
2022-10-19T03:33:35.628Z,98213.03
2022-10-19T03:36:14.846Z,98219.69
2022-10-19T03:38:41.287Z,98212.31
2022-10-19T03:41:07.997Z,98210.16
2022-10-19T03:43:34.657Z,98216.81
2022-10-19T03:46:01.123Z,98219.44
2022-10-19T03:48:28.148Z,98213.97
2022-10-19T03:51:00.835Z,98223.09
2022-10-19T03:53:27.258Z,98221.09
2022-10-19T03:55:53.667Z,98228.72
2022-10-19T03:58:20.204Z,98225.00
2022-10-19T04:00:46.677Z,98228.56
2022-10-19T04:03:13.150Z,98230.09
2022-10-19T04:05:39.570Z,98229.41
2022-10-19T04:08:06.044Z,98232.25
2022-10-19T04:10:32.483Z,98232.97
2022-10-19T04:12:58.953Z,98233.44
2022-10-19T04:15:25.420Z,98236.28
2022-10-19T04:17:51.880Z,98244.72
2022-10-19T04:20:18.295Z,98235.09
2022-10-19T04:22:44.719Z,98242.00
2022-10-19T04:25:12.388Z,98243.41
2022-10-19T04:27:38.811Z,98251.00
2022-10-19T04:30:05.479Z,98248.41
2022-10-19T04:32:32.027Z,98251.72
2022-10-19T04:34:58.503Z,98251.84
2022-10-19T04:37:24.938Z,98255.53
2022-10-19T04:39:51.446Z,98249.47
2022-10-19T04:42:17.880Z,98249.22
2022-10-19T04:44:44.384Z,98241.88
2022-10-19T04:47:10.802Z,98243.88
2022-10-19T04:49:37.283Z,98241.53
2022-10-19T04:52:03.738Z,98244.59
2022-10-19T04:54:30.237Z,98244.59
2022-10-19T04:56:56.661Z,98240.19
2022-10-19T04:59:23.139Z,98238.19
2022-10-19T05:01:49.565Z,98236.06
2022-10-19T05:04:16.052Z,98227.00
2022-10-19T05:06:42.474Z,98220.59
2022-10-19T05:09:09.182Z,98219.38
2022-10-19T05:11:35.689Z,98223.44
2022-10-19T05:14:02.186Z,98229.38
2022-10-19T05:16:28.706Z,98225.91
2022-10-19T05:19:02.088Z,98224.13
2022-10-19T05:21:29.023Z,98220.81
2022-10-19T05:23:55.979Z,98207.63
2022-10-19T05:26:23.359Z,98198.94
2022-10-19T05:28:50.486Z,98195.75
2022-10-19T05:31:20.316Z,98198.72
2022-10-19T05:33:47.209Z,98194.81
2022-10-19T05:36:14.508Z,98204.69
2022-10-19T05:38:41.220Z,98199.09
2022-10-19T05:41:07.681Z,98192.59
2022-10-19T05:43:34.152Z,98184.41
2022-10-19T05:46:07.547Z,98182.97
2022-10-19T05:48:34.971Z,98175.63
2022-10-19T05:51:02.186Z,98179.56
2022-10-19T05:53:29.262Z,98181.31
2022-10-19T05:55:55.770Z,98184.06
2022-10-19T05:58:22.206Z,98191.66
2022-10-19T06:00:55.265Z,98194.38
2022-10-19T06:03:22.236Z,98189.75
2022-10-19T06:05:49.480Z,98191.91
2022-10-19T06:08:17.026Z,98199.75
2022-10-19T06:10:43.905Z,98200.31
2022-10-19T06:13:10.511Z,98191.19
2022-10-19T06:15:37.072Z,98195.44
2022-10-19T06:18:04.026Z,98194.34
2022-10-19T06:20:30.642Z,98200.88
2022-10-19T06:22:57.068Z,98200.75
2022-10-19T06:25:23.586Z,98200.00
2022-10-19T06:27:50.128Z,98200.47
2022-10-19T06:30:16.725Z,98208.91
2022-10-19T06:32:43.179Z,98207.94
2022-10-19T06:35:09.724Z,98207.47
2022-10-19T06:37:36.444Z,98206.09
2022-10-19T06:40:06.916Z,98210.72
2022-10-19T06:42:33.701Z,98206.09
2022-10-19T06:45:00.190Z,98211.78
2022-10-19T06:47:31.398Z,98214.16
2022-10-19T06:49:58.033Z,98211.75
2022-10-19T06:52:24.469Z,98214.97
2022-10-19T06:54:50.936Z,98203.69
2022-10-19T06:57:17.420Z,98210.69
2022-10-19T06:59:43.860Z,98209.09
2022-10-19T07:02:11.192Z,98210.31
2022-10-19T07:04:37.672Z,98208.50
2022-10-19T07:07:04.148Z,98212.06
2022-10-19T07:09:30.682Z,98211.13
2022-10-19T07:11:57.119Z,98213.84
2022-10-19T07:14:24.866Z,98212.53
2022-10-19T07:16:51.420Z,98209.09
2022-10-19T07:19:17.864Z,98207.25
2022-10-19T07:21:44.933Z,98211.53
2022-10-19T07:24:11.508Z,98215.25
2022-10-19T07:26:38.207Z,98212.84
2022-10-19T07:29:04.670Z,98210.88
2022-10-19T07:31:31.350Z,98207.25
2022-10-19T07:34:01.560Z,98210.47
2022-10-19T07:36:28.798Z,98206.19
2022-10-19T07:38:55.455Z,98209.28
2022-10-19T07:41:22.473Z,98205.16
2022-10-19T07:43:49.270Z,98206.25
2022-10-19T07:46:16.920Z,98190.81
2022-10-19T07:48:44.118Z,98193.53
2022-10-19T07:51:11.317Z,98194.47
2022-10-19T07:53:37.755Z,98186.91
2022-10-19T07:56:11.348Z,98189.56
2022-10-19T07:58:38.122Z,98203.66
2022-10-19T08:01:05.735Z,98203.53
2022-10-19T08:06:19.680Z,98203.94
2022-10-19T08:08:46.565Z,98209.19
2022-10-19T08:11:15.170Z,98208.06
2022-10-19T08:13:41.673Z,98210.84
2022-10-19T08:16:20.754Z,98215.53
2022-10-19T08:18:47.163Z,98216.22
2022-10-19T08:21:13.619Z,98214.16
2022-10-19T08:23:41.458Z,98203.94
2022-10-19T08:26:07.948Z,98212.19
2022-10-19T08:28:34.482Z,98213.88
2022-10-19T08:31:09.060Z,98209.22
2022-10-19T08:33:35.512Z,98211.44
2022-10-19T08:36:04.530Z,98213.59
2022-10-19T08:38:30.964Z,98220.41
2022-10-19T08:40:57.435Z,98219.59
2022-10-19T08:43:27.820Z,98213.72
2022-10-19T08:45:59.440Z,98216.47
2022-10-19T08:48:27.827Z,98209.88
2022-10-19T08:50:54.893Z,98214.16
2022-10-19T08:53:27.626Z,98213.16
2022-10-19T08:56:22.141Z,98210.94
2022-10-19T08:59:14.161Z,98212.19
2022-10-19T09:02:16.066Z,98206.34
2022-10-19T09:04:46.922Z,98199.75
2022-10-19T09:07:21.225Z,98200.25
2022-10-19T09:09:51.835Z,98190.53
2022-10-19T09:12:19.678Z,98187.84
2022-10-19T09:14:56.176Z,98184.06
2022-10-19T09:17:22.863Z,98188.69
2022-10-19T09:19:49.262Z,98172.09
2022-10-19T09:22:18.719Z,98170.16
2022-10-19T09:24:54.778Z,98170.13
2022-10-19T09:27:22.438Z,98169.53
2022-10-19T09:29:58.959Z,98176.38
2022-10-19T09:32:27.728Z,98167.16
2022-10-19T09:34:54.777Z,98162.63
2022-10-19T09:37:25.980Z,98163.53
2022-10-19T09:39:54.942Z,98159.06
2022-10-19T09:42:36.873Z,98156.88
2022-10-19T09:45:12.092Z,98156.34
2022-10-19T09:47:39.221Z,98153.06
2022-10-19T09:50:25.439Z,98146.56
2022-10-19T09:52:52.654Z,98152.75
2022-10-19T09:55:28.319Z,98146.28
2022-10-19T09:58:02.397Z,98140.63
2022-10-19T10:00:36.596Z,98131.88
2022-10-19T10:03:03.437Z,98132.19
2022-10-19T10:05:31.463Z,98129.59
2022-10-19T10:07:58.064Z,98140.91
2022-10-19T10:10:28.226Z,98134.31
2022-10-19T10:12:58.063Z,98135.09
2022-10-19T10:15:25.875Z,98130.16
2022-10-19T10:17:52.329Z,98138.34
2022-10-19T10:20:21.062Z,98133.72
2022-10-19T10:22:57.036Z,98139.00
2022-10-19T10:25:25.406Z,98143.00
2022-10-19T10:27:59.321Z,98134.81
2022-10-19T10:30:25.753Z,98132.50
2022-10-19T10:32:55.383Z,98136.88
2022-10-19T10:35:26.333Z,98128.00
2022-10-19T10:37:52.826Z,98121.63
2022-10-19T10:40:23.363Z,98115.06
2022-10-19T10:42:50.228Z,98112.78
2022-10-19T10:45:18.044Z,98106.97
2022-10-19T10:47:48.288Z,98106.34
2022-10-19T10:50:34.807Z,98108.34
2022-10-19T10:53:05.462Z,98109.50
2022-10-19T10:55:32.463Z,98093.78
2022-10-19T10:58:03.138Z,98092.50
2022-10-19T11:00:29.636Z,98099.69
2022-10-19T11:03:02.428Z,98091.63
2022-10-19T11:05:29.754Z,98086.75
2022-10-19T11:08:15.046Z,98084.84
2022-10-19T11:10:43.785Z,98077.44
2022-10-19T11:13:17.907Z,98069.47
2022-10-19T11:16:00.891Z,98071.97
2022-10-19T11:18:28.532Z,98068.25
2022-10-19T11:21:09.727Z,98068.81
2022-10-19T11:23:54.859Z,98067.91
2022-10-19T11:26:36.676Z,98060.03
2022-10-19T11:29:09.234Z,98057.00
2022-10-19T11:31:41.642Z,98061.47
2022-10-19T11:34:28.317Z,98047.16
2022-10-19T11:37:00.082Z,98043.34
2022-10-19T11:39:35.656Z,98030.31
2022-10-19T11:42:06.405Z,98038.16
2022-10-19T11:44:36.092Z,98032.41
2022-10-19T11:47:18.218Z,98023.28
2022-10-19T11:50:11.225Z,98018.34
2022-10-19T11:52:40.754Z,98012.47
2022-10-19T11:55:24.447Z,98007.03
2022-10-19T11:57:55.829Z,98016.16
2022-10-19T12:03:25.789Z,98005.97
2022-10-19T12:06:14.560Z,98006.69
2022-10-19T12:08:48.279Z,97991.81
2022-10-19T12:11:19.549Z,97988.34
2022-10-19T12:14:03.511Z,97984.53
2022-10-19T12:16:37.618Z,97986.91
2022-10-19T12:19:04.296Z,97988.56
2022-10-19T12:21:34.863Z,97973.69
2022-10-19T12:24:02.043Z,97970.47
2022-10-19T12:26:29.762Z,97975.38
2022-10-19T12:28:57.150Z,97971.78
2022-10-19T12:31:24.236Z,97960.75
2022-10-19T12:34:10.170Z,97958.31
2022-10-19T12:36:48.024Z,97956.59
2022-10-19T12:39:17.555Z,97955.09
2022-10-19T12:41:59.267Z,97955.72
2022-10-19T12:44:44.479Z,97949.81
2022-10-19T12:47:23.752Z,97946.75
2022-10-19T12:49:50.753Z,97948.50
2022-10-19T12:52:34.614Z,97942.16
2022-10-19T12:55:10.447Z,97954.19
2022-10-19T12:57:37.127Z,97946.63
2022-10-19T13:00:06.865Z,97945.81
2022-10-19T13:02:36.984Z,97938.53
2022-10-19T13:05:03.576Z,97938.22
2022-10-19T13:07:30.390Z,97927.09
2022-10-19T13:10:01.163Z,97920.56
2022-10-19T13:12:28.626Z,97922.72
2022-10-19T13:14:55.187Z,97920.03
2022-10-19T13:17:34.413Z,97914.31
2022-10-19T13:20:13.371Z,97906.41
2022-10-19T13:22:40.514Z,97897.03
2022-10-19T13:25:16.151Z,97897.66
2022-10-19T13:27:46.264Z,97891.28
2022-10-19T13:30:31.636Z,97898.41
2022-10-19T13:32:58.127Z,97887.94
2022-10-19T13:35:30.668Z,97892.63
2022-10-19T13:38:09.356Z,97885.28
2022-10-19T13:40:36.630Z,97887.91
2022-10-19T13:43:03.084Z,97889.16
2022-10-19T13:45:29.520Z,97889.56
2022-10-19T13:47:57.583Z,97880.13
2022-10-19T13:50:27.096Z,97878.91
2022-10-19T13:53:00.310Z,97870.31
2022-10-19T13:55:46.581Z,97874.59
2022-10-19T13:58:21.863Z,97875.97
2022-10-19T14:01:07.059Z,97884.56
2022-10-19T14:03:51.877Z,97877.25
2022-10-19T14:06:29.325Z,97876.03
2022-10-19T14:09:15.163Z,97874.81
2022-10-19T14:11:41.958Z,97863.75
2022-10-19T14:14:11.404Z,97870.50
2022-10-19T14:17:01.190Z,97864.78
2022-10-19T14:19:41.360Z,97866.22
2022-10-19T14:22:26.736Z,97865.13
2022-10-19T14:24:59.802Z,97861.69
2022-10-19T14:27:26.262Z,97860.81
2022-10-19T14:29:53.311Z,97856.28
2022-10-19T14:32:26.140Z,97849.50
2022-10-19T14:34:52.909Z,97851.63
2022-10-19T14:37:23.127Z,97855.03
2022-10-19T14:40:00.133Z,97854.94
2022-10-19T14:42:35.617Z,97856.34
2022-10-19T14:45:02.562Z,97853.72
2022-10-19T14:47:30.528Z,97847.53
2022-10-19T14:49:56.972Z,97839.53
2022-10-19T14:52:25.408Z,97852.50
2022-10-19T14:54:52.180Z,97843.03
2022-10-19T14:57:32.503Z,97842.41
2022-10-19T15:00:00.197Z,97847.44
2022-10-19T15:02:31.359Z,97841.25
2022-10-19T15:04:58.834Z,97841.19
2022-10-19T15:07:26.932Z,97831.97
2022-10-19T15:10:03.737Z,97833.31
2022-10-19T15:12:34.322Z,97820.50
2022-10-19T15:15:00.879Z,97819.34
2022-10-19T15:17:28.491Z,97827.06
2022-10-19T15:19:56.136Z,97824.34
2022-10-19T15:22:24.111Z,97830.22
2022-10-19T15:24:55.587Z,97820.06
2022-10-19T15:27:22.989Z,97823.03
2022-10-19T15:29:56.340Z,97819.56
2022-10-19T15:32:23.686Z,97817.63
2022-10-19T15:34:50.130Z,97816.28
2022-10-19T15:37:23.110Z,97819.81
2022-10-19T15:39:50.141Z,97818.09
2022-10-19T15:42:23.919Z,97812.53
2022-10-19T15:44:50.298Z,97813.44
2022-10-19T15:47:18.851Z,97809.06
2022-10-19T15:49:45.754Z,97803.50
2022-10-19T15:52:15.644Z,97809.72
2022-10-19T15:54:42.930Z,97803.41
2022-10-19T15:57:22.677Z,97797.53
2022-10-19T15:59:49.168Z,97796.97
2022-10-19T16:02:15.656Z,97797.69
2022-10-19T16:04:42.059Z,97803.56
2022-10-19T16:07:09.511Z,97791.19
2022-10-19T16:09:35.964Z,97796.72
2022-10-19T16:12:10.178Z,97794.13
2022-10-19T16:14:36.884Z,97791.09
2022-10-19T16:17:03.861Z,97784.19
2022-10-19T16:19:30.611Z,97787.06
2022-10-19T16:21:57.152Z,97783.97
2022-10-19T16:24:23.670Z,97781.69
2022-10-19T16:26:50.103Z,97783.84
2022-10-19T16:29:16.558Z,97786.69
2022-10-19T16:31:43.019Z,97790.38
2022-10-19T16:34:09.430Z,97784.78
2022-10-19T16:36:35.858Z,97787.09
2022-10-19T16:39:02.759Z,97785.97
2022-10-19T16:41:29.224Z,97776.59
2022-10-19T16:43:56.215Z,97783.22
2022-10-19T16:46:22.926Z,97783.59
2022-10-19T16:48:49.430Z,97771.22
2022-10-19T16:51:20.115Z,97769.41
2022-10-19T16:53:46.602Z,97756.56
2022-10-19T16:56:13.065Z,97759.69
2022-10-19T16:58:39.987Z,97750.97
2022-10-19T17:01:14.156Z,97751.97
2022-10-19T17:03:40.902Z,97746.38
2022-10-19T17:06:07.587Z,97745.53
2022-10-19T17:08:53.034Z,97734.81
2022-10-19T17:11:24.899Z,97730.66
2022-10-19T17:13:51.662Z,97723.91
2022-10-19T17:16:19.519Z,97733.31
2022-10-19T17:18:46.050Z,97732.19
2022-10-19T17:21:13.362Z,97735.31
2022-10-19T17:23:40.046Z,97736.47
2022-10-19T17:26:06.671Z,97733.34
2022-10-19T17:28:33.119Z,97741.09
2022-10-19T17:31:03.663Z,97747.19
2022-10-19T17:33:30.191Z,97733.84
2022-10-19T17:36:02.128Z,97735.16
2022-10-19T17:38:28.574Z,97731.56
2022-10-19T17:40:54.966Z,97736.16
2022-10-19T17:43:21.417Z,97733.22
2022-10-19T17:45:47.824Z,97745.75
2022-10-19T17:48:14.267Z,97738.81
2022-10-19T17:50:40.643Z,97739.47
2022-10-19T17:53:07.079Z,97738.47
2022-10-19T17:55:36.299Z,97741.63
2022-10-19T17:58:02.764Z,97742.09
2022-10-19T18:00:29.188Z,97741.44
2022-10-19T18:02:55.726Z,97740.44
2022-10-19T18:05:22.158Z,97740.44
2022-10-19T18:07:49.450Z,97740.13
2022-10-19T18:10:15.908Z,97740.78
2022-10-19T18:12:42.395Z,97740.78
2022-10-19T18:15:08.876Z,97729.28
2022-10-19T18:17:35.606Z,97738.66
2022-10-19T18:20:02.240Z,97741.78
2022-10-19T18:22:28.686Z,97736.53
2022-10-19T18:24:55.125Z,97740.47
2022-10-19T18:27:21.552Z,97739.47
2022-10-19T18:29:47.963Z,97737.66
2022-10-19T18:32:14.363Z,97738.81
2022-10-19T18:34:40.798Z,97730.59
2022-10-19T18:37:07.452Z,97724.34
2022-10-19T18:39:33.876Z,97718.25
2022-10-19T18:42:00.616Z,97722.34
2022-10-19T18:44:29.496Z,97725.16
2022-10-19T18:46:57.946Z,97724.31
2022-10-19T18:49:24.619Z,97718.22
2022-10-19T18:51:55.029Z,97703.41
2022-10-19T18:54:22.664Z,97706.53
2022-10-19T18:56:49.154Z,97698.13
2022-10-19T18:59:15.649Z,97705.72
2022-10-19T19:01:42.181Z,97709.47
2022-10-19T19:04:09.095Z,97704.72
2022-10-19T19:06:36.321Z,97710.84
2022-10-19T19:09:04.417Z,97704.91
2022-10-19T19:11:34.324Z,97701.09
2022-10-19T19:14:20.928Z,97694.03
2022-10-19T19:16:47.422Z,97683.31
2022-10-19T19:19:14.595Z,97682.69
2022-10-19T19:21:44.096Z,97670.66
2022-10-19T19:24:12.205Z,97674.63
2022-10-19T19:26:40.035Z,97678.22
2022-10-19T19:29:06.605Z,97679.53
2022-10-19T19:31:33.180Z,97677.56
2022-10-19T19:34:01.047Z,97675.91
2022-10-19T19:36:27.553Z,97681.69
2022-10-19T19:38:55.540Z,97671.63
2022-10-19T19:41:22.108Z,97671.81
2022-10-19T19:43:48.518Z,97664.91
2022-10-19T19:46:16.554Z,97653.22
2022-10-19T19:48:43.744Z,97651.91
2022-10-19T19:51:11.532Z,97655.50
2022-10-19T19:53:37.951Z,97656.81
2022-10-19T19:56:05.840Z,97649.09
2022-10-19T19:58:32.294Z,97646.47
2022-10-19T20:00:58.707Z,97638.88
2022-10-19T20:03:25.147Z,97644.78
2022-10-19T20:05:51.575Z,97653.53
2022-10-19T20:08:18.040Z,97650.59
2022-10-19T20:10:44.500Z,97644.31
2022-10-19T20:13:10.939Z,97644.97
2022-10-19T20:15:37.971Z,97643.66
2022-10-19T20:18:04.618Z,97638.41
2022-10-19T20:20:31.045Z,97642.66
2022-10-19T20:22:57.506Z,97642.31
2022-10-19T20:25:23.920Z,97646.78
2022-10-19T20:27:50.349Z,97647.78
2022-10-19T20:30:16.842Z,97659.13
2022-10-19T20:32:43.286Z,97653.88
2022-10-19T20:35:09.755Z,97652.53
2022-10-19T20:37:36.261Z,97649.56
2022-10-19T20:40:08.522Z,97648.28
2022-10-19T20:42:35.731Z,97645.63
2022-10-19T20:45:02.435Z,97634.44
2022-10-19T20:47:28.967Z,97627.19
2022-10-19T20:49:55.393Z,97641.69
2022-10-19T20:52:21.856Z,97637.41
2022-10-19T20:54:48.600Z,97629.50
2022-10-19T20:57:15.064Z,97628.03
2022-10-19T20:59:41.681Z,97621.59
2022-10-19T21:02:09.559Z,97616.00
2022-10-19T21:04:36.035Z,97622.59
2022-10-19T21:07:04.413Z,97618.66
2022-10-19T21:09:30.865Z,97622.28
2022-10-19T21:11:57.316Z,97620.63
2022-10-19T21:14:27.239Z,97622.75
2022-10-19T21:16:56.658Z,97612.72
2022-10-19T21:19:24.065Z,97617.97
2022-10-19T21:21:51.911Z,97615.50
2022-10-19T21:24:26.160Z,97610.09
2022-10-19T21:26:52.872Z,97608.78
2022-10-19T21:29:19.458Z,97603.19
2022-10-19T21:31:48.931Z,97606.47
2022-10-19T21:34:17.082Z,97605.81
2022-10-19T21:36:43.664Z,97604.66
2022-10-19T21:39:10.114Z,97604.44
2022-10-19T21:41:36.518Z,97600.66
2022-10-19T21:44:02.951Z,97603.72
2022-10-19T21:46:29.440Z,97599.28
2022-10-19T21:48:56.083Z,97603.84
2022-10-19T21:51:31.807Z,97601.19
2022-10-19T21:53:58.367Z,97595.06
2022-10-19T21:56:24.827Z,97597.53
2022-10-19T21:58:52.987Z,97582.59
2022-10-19T22:01:20.943Z,97589.47
2022-10-19T22:03:47.429Z,97585.88
2022-10-19T22:06:14.165Z,97583.09
2022-10-19T22:08:43.725Z,97568.03
2022-10-19T22:11:11.090Z,97557.72
2022-10-19T22:13:37.625Z,97559.31
2022-10-19T22:16:04.895Z,97555.16
2022-10-19T22:18:31.361Z,97539.28
2022-10-19T22:20:57.773Z,97540.91
2022-10-19T22:23:24.179Z,97549.53
2022-10-19T22:25:50.594Z,97533.09
2022-10-19T22:28:17.029Z,97539.19
2022-10-19T22:30:45.063Z,97547.53
2022-10-19T22:33:11.542Z,97541.78
2022-10-19T22:35:37.919Z,97544.06
2022-10-19T22:38:04.365Z,97536.03
2022-10-19T22:40:30.801Z,97543.94
2022-10-19T22:42:57.230Z,97548.22
2022-10-19T22:45:23.654Z,97540.75
2022-10-19T22:47:50.130Z,97538.00
2022-10-19T22:50:16.616Z,97536.66
2022-10-19T22:52:43.091Z,97537.84
2022-10-19T22:55:09.539Z,97536.03
2022-10-19T22:57:35.967Z,97533.75
2022-10-19T23:00:02.411Z,97527.00
2022-10-19T23:02:29.263Z,97525.19
2022-10-19T23:04:55.688Z,97515.31
2022-10-19T23:07:22.126Z,97515.66
2022-10-19T23:09:48.566Z,97520.25
2022-10-19T23:12:15.068Z,97515.31
2022-10-19T23:14:41.479Z,97507.91
2022-10-19T23:17:07.889Z,97502.50
2022-10-19T23:19:34.371Z,97495.09
2022-10-19T23:22:00.789Z,97499.53
2022-10-19T23:24:27.249Z,97491.97
2022-10-19T23:26:53.779Z,97487.69
2022-10-19T23:29:20.247Z,97485.72
2022-10-19T23:31:48.003Z,97483.94
2022-10-19T23:34:14.416Z,97482.94
2022-10-19T23:36:40.841Z,97480.13
2022-10-19T23:39:07.369Z,97472.25
2022-10-19T23:41:33.758Z,97469.94
2022-10-19T23:44:00.186Z,97462.53
2022-10-19T23:46:26.613Z,97475.34
2022-10-19T23:48:53.044Z,97452.84
2022-10-19T23:51:20.011Z,97457.28
2022-10-19T23:53:47.098Z,97451.53
2022-10-19T23:56:14.385Z,97451.69
2022-10-19T23:58:40.939Z,97446.28
